createdAt,value
2022-10-02T00:02:02.333Z,100027.00
2022-10-02T00:05:10.499Z,100032.00
2022-10-02T00:07:42.117Z,100031.00
2022-10-02T00:10:22.848Z,100042.00
2022-10-02T00:12:52.137Z,100046.00
2022-10-02T00:15:22.840Z,100040.00
2022-10-02T00:17:51.846Z,100046.00
2022-10-02T00:20:20.246Z,100047.00
2022-10-02T00:22:59.840Z,100040.00
2022-10-02T00:25:45.710Z,100039.00
2022-10-02T00:28:19.951Z,100037.00
2022-10-02T00:31:06.009Z,100037.00
2022-10-02T00:33:44.615Z,100044.00
2022-10-02T00:36:34.570Z,100042.00
2022-10-02T00:39:20.070Z,100044.00
2022-10-02T00:42:07.560Z,100046.00
2022-10-02T00:44:53.989Z,100038.00
2022-10-02T00:47:32.666Z,100051.00
2022-10-02T00:50:31.886Z,100051.00
2022-10-02T00:53:24.763Z,100050.00
2022-10-02T00:56:01.840Z,100048.00
2022-10-02T00:58:53.355Z,100059.00
2022-10-02T01:01:24.198Z,100058.00
2022-10-02T01:03:56.393Z,100059.00
2022-10-02T01:06:24.525Z,100067.00
2022-10-02T01:08:52.106Z,100061.00
2022-10-02T01:11:20.124Z,100062.00
2022-10-02T01:13:46.600Z,100063.00
2022-10-02T01:16:14.225Z,100074.00
2022-10-02T01:18:42.609Z,100069.00
2022-10-02T01:21:14.098Z,100082.00
2022-10-02T01:23:57.596Z,100081.00
2022-10-02T01:26:24.049Z,100064.00
2022-10-02T01:28:50.529Z,100093.00
2022-10-02T01:31:17.116Z,100092.00
2022-10-02T01:33:44.776Z,100093.00
2022-10-02T01:36:12.829Z,100089.00
2022-10-02T01:38:41.226Z,100092.00
2022-10-02T01:41:11.147Z,100106.00
2022-10-02T01:43:58.866Z,100106.00
2022-10-02T01:47:02.286Z,100104.00
2022-10-02T01:49:43.968Z,100106.00
2022-10-02T01:52:17.645Z,100113.00
2022-10-02T01:54:51.546Z,100118.00
2022-10-02T01:57:48.018Z,100120.00
2022-10-02T02:00:19.475Z,100120.00
2022-10-02T02:03:22.572Z,100130.00
2022-10-02T02:06:01.342Z,100120.00
2022-10-02T02:08:34.778Z,100127.00
2022-10-02T02:11:12.013Z,100118.00
2022-10-02T02:13:46.715Z,100118.00
2022-10-02T02:16:23.783Z,100123.00
2022-10-02T02:19:28.925Z,100123.00
2022-10-02T02:22:05.039Z,100131.00
2022-10-02T02:24:36.705Z,100140.00
2022-10-02T02:27:04.544Z,100131.00
2022-10-02T02:29:34.673Z,100142.00
2022-10-02T02:32:04.042Z,100138.00
2022-10-02T02:34:32.811Z,100145.00
2022-10-02T02:37:06.675Z,100146.00
2022-10-02T02:39:49.577Z,100142.00
2022-10-02T02:42:18.214Z,100146.00
2022-10-02T02:45:06.379Z,100145.00
2022-10-02T02:47:38.784Z,100147.00
2022-10-02T02:50:08.184Z,100146.00
2022-10-02T02:52:39.873Z,100150.00
2022-10-02T02:55:12.961Z,100147.00
2022-10-02T02:57:48.524Z,100154.00
2022-10-02T03:00:15.914Z,100153.00
2022-10-02T03:02:42.425Z,100145.00
2022-10-02T03:05:16.645Z,100148.00
2022-10-02T03:07:54.533Z,100148.00
2022-10-02T03:10:38.136Z,100152.00
2022-10-02T03:13:16.809Z,100147.00
2022-10-02T03:16:09.206Z,100154.00
2022-10-02T03:19:14.172Z,100152.00
2022-10-02T03:21:49.933Z,100155.00
2022-10-02T03:24:30.842Z,100160.00
2022-10-02T03:27:13.828Z,100157.00
2022-10-02T03:29:45.339Z,100155.00
2022-10-02T03:32:14.156Z,100158.00
2022-10-02T03:34:40.720Z,100173.00
2022-10-02T03:37:07.412Z,100167.00
2022-10-02T03:39:33.848Z,100159.00
2022-10-02T03:42:00.800Z,100162.00
2022-10-02T03:44:27.333Z,100147.00
2022-10-02T03:46:53.889Z,100169.00
2022-10-02T03:49:20.369Z,100166.00
2022-10-02T03:51:46.869Z,100168.00
2022-10-02T03:54:18.128Z,100164.00
2022-10-02T03:56:57.951Z,100164.00
2022-10-02T03:59:39.083Z,100165.00
2022-10-02T04:02:10.624Z,100168.00
2022-10-02T04:04:51.394Z,100162.00
2022-10-02T04:07:22.905Z,100170.00
2022-10-02T04:10:27.226Z,100169.00
2022-10-02T04:13:02.196Z,100165.00
2022-10-02T04:15:51.722Z,100164.00
2022-10-02T04:18:22.513Z,100165.00
2022-10-02T04:20:56.522Z,100170.00
2022-10-02T04:23:38.625Z,100166.00
2022-10-02T04:26:29.839Z,100162.00
2022-10-02T04:29:11.840Z,100167.00
2022-10-02T04:31:38.374Z,100172.00
2022-10-02T04:34:05.381Z,100173.00
2022-10-02T04:36:40.615Z,100163.00
2022-10-02T04:39:20.378Z,100177.00
2022-10-02T04:42:09.771Z,100175.00
2022-10-02T04:44:50.205Z,100171.00
2022-10-02T04:47:35.417Z,100182.00
2022-10-02T04:50:23.686Z,100179.00
2022-10-02T04:53:29.080Z,100189.00
2022-10-02T04:56:13.811Z,100186.00
2022-10-02T04:59:19.238Z,100188.00
2022-10-02T05:02:04.447Z,100184.00
2022-10-02T05:04:58.222Z,100176.00
2022-10-02T05:07:43.550Z,100174.00
2022-10-02T05:10:28.949Z,100178.00
2022-10-02T05:13:08.223Z,100188.00
2022-10-02T05:15:44.374Z,100182.00
2022-10-02T05:18:35.472Z,100180.00
2022-10-02T05:21:29.206Z,100166.00
2022-10-02T05:24:12.096Z,100179.00
2022-10-02T05:26:38.789Z,100185.00
2022-10-02T05:29:30.618Z,100188.00
2022-10-02T05:32:21.317Z,100192.00
2022-10-02T05:35:06.584Z,100194.00
2022-10-02T05:37:54.865Z,100190.00
2022-10-02T05:40:31.408Z,100192.00
2022-10-02T05:43:42.530Z,100193.00
2022-10-02T05:46:24.026Z,100191.00
2022-10-02T05:49:20.720Z,100198.00
2022-10-02T05:51:59.469Z,100203.00
2022-10-02T05:54:46.873Z,100207.00
2022-10-02T05:57:35.632Z,100209.00
2022-10-02T06:00:12.197Z,100207.00
2022-10-02T06:02:59.656Z,100212.00
2022-10-02T06:05:33.506Z,100212.00
2022-10-02T06:08:03.022Z,100218.00
2022-10-02T06:10:37.380Z,100220.00
2022-10-02T06:13:20.121Z,100223.00
2022-10-02T06:15:53.138Z,100223.00
2022-10-02T06:18:22.340Z,100213.00
2022-10-02T06:20:53.520Z,100227.00
2022-10-02T06:23:29.442Z,100218.00
2022-10-02T06:25:56.860Z,100219.00
2022-10-02T06:28:26.696Z,100225.00
2022-10-02T06:31:17.900Z,100237.00
2022-10-02T06:33:45.318Z,100222.00
2022-10-02T06:36:13.648Z,100228.00
2022-10-02T06:39:14.262Z,100237.00
2022-10-02T06:41:47.237Z,100229.00
2022-10-02T06:44:25.413Z,100236.00
2022-10-02T06:47:10.343Z,100234.00
2022-10-02T06:49:58.862Z,100234.00
2022-10-02T06:52:38.301Z,100241.00
2022-10-02T06:55:59.407Z,100244.00
2022-10-02T06:58:37.719Z,100244.00
2022-10-02T07:01:25.938Z,100237.00
2022-10-02T07:04:19.651Z,100247.00
2022-10-02T07:06:58.500Z,100236.00
2022-10-02T07:09:51.338Z,100239.00
2022-10-02T07:12:47.516Z,100240.00
2022-10-02T07:15:29.615Z,100245.00
2022-10-02T07:18:15.386Z,100244.00
2022-10-02T07:20:50.018Z,100224.00
2022-10-02T07:23:31.327Z,100237.00
2022-10-02T07:26:07.357Z,100230.00
2022-10-02T07:28:45.281Z,100235.00
2022-10-02T07:31:46.030Z,100241.00
2022-10-02T07:34:26.829Z,100243.00
2022-10-02T07:37:30.157Z,100242.00
2022-10-02T07:40:21.699Z,100250.00
2022-10-02T07:43:00.177Z,100254.00
2022-10-02T07:45:52.398Z,100249.00
2022-10-02T07:48:32.194Z,100247.00
2022-10-02T07:51:04.251Z,100236.00
2022-10-02T07:53:49.935Z,100248.00
2022-10-02T07:56:20.718Z,100254.00
2022-10-02T07:58:54.595Z,100245.00
2022-10-02T08:01:32.251Z,100249.00
2022-10-02T08:04:01.379Z,100248.00
2022-10-02T08:06:28.064Z,100254.00
2022-10-02T08:09:01.985Z,100257.00
2022-10-02T08:11:32.852Z,100258.00
2022-10-02T08:14:08.649Z,100262.00
2022-10-02T08:16:40.819Z,100252.00
2022-10-02T08:19:13.451Z,100247.00
2022-10-02T08:21:43.778Z,100247.00
2022-10-02T08:24:22.355Z,100247.00
2022-10-02T08:26:53.748Z,100247.00
2022-10-02T08:29:44.545Z,100244.00
2022-10-02T08:32:11.901Z,100237.00
2022-10-02T08:34:39.358Z,100233.00
2022-10-02T08:37:10.769Z,100237.00
2022-10-02T08:39:59.953Z,100243.00
2022-10-02T08:42:58.335Z,100241.00
2022-10-02T08:45:39.147Z,100242.00
2022-10-02T08:48:27.637Z,100246.00
2022-10-02T08:51:06.278Z,100241.00
2022-10-02T08:54:02.530Z,100233.00
2022-10-02T08:56:50.936Z,100230.00
2022-10-02T08:59:23.839Z,100227.00
2022-10-02T09:02:27.907Z,100226.00
2022-10-02T09:05:20.183Z,100231.00
2022-10-02T09:08:17.801Z,100222.00
2022-10-02T09:10:55.553Z,100226.00
2022-10-02T09:13:31.457Z,100225.00
2022-10-02T09:16:12.818Z,100227.00
2022-10-02T09:19:03.614Z,100230.00
2022-10-02T09:21:48.389Z,100236.00
2022-10-02T09:24:51.427Z,100242.00
2022-10-02T09:27:23.942Z,100244.00
2022-10-02T09:30:09.944Z,100230.00
2022-10-02T09:32:58.355Z,100234.00
2022-10-02T09:35:39.167Z,100233.00
2022-10-02T09:38:08.984Z,100235.00
2022-10-02T09:40:58.432Z,100231.00
2022-10-02T09:44:09.083Z,100237.00
2022-10-02T09:47:13.022Z,100233.00
2022-10-02T09:50:10.711Z,100232.00
2022-10-02T09:53:15.019Z,100230.00
2022-10-02T09:56:08.782Z,100221.00
2022-10-02T09:59:19.024Z,100208.00
2022-10-02T10:02:08.360Z,100218.00
2022-10-02T10:05:16.414Z,100211.00
2022-10-02T10:08:22.002Z,100214.00
2022-10-02T10:11:29.181Z,100214.00
2022-10-02T10:14:19.564Z,100219.00
2022-10-02T10:16:49.057Z,100207.00
2022-10-02T10:19:22.254Z,100207.00
2022-10-02T10:22:26.713Z,100215.00
2022-10-02T10:25:10.695Z,100209.00
2022-10-02T10:27:56.913Z,100202.00
2022-10-02T10:30:44.380Z,100199.00
2022-10-02T10:33:30.116Z,100204.00
2022-10-02T10:36:35.648Z,100213.00
2022-10-02T10:39:26.659Z,100217.00
2022-10-02T10:42:18.876Z,100215.00
2022-10-02T10:45:08.527Z,100231.00
2022-10-02T10:47:46.533Z,100231.00
2022-10-02T10:50:30.874Z,100228.00
2022-10-02T10:53:17.034Z,100241.00
2022-10-02T10:55:52.383Z,100241.00
2022-10-02T10:58:29.977Z,100245.00
2022-10-02T11:01:30.018Z,100233.00
2022-10-02T11:04:18.205Z,100239.00
2022-10-02T11:07:01.120Z,100240.00
2022-10-02T11:09:36.622Z,100237.00
2022-10-02T11:12:21.590Z,100250.00
2022-10-02T11:15:07.823Z,100235.00
2022-10-02T11:17:40.387Z,100225.00
2022-10-02T11:20:29.950Z,100227.00
2022-10-02T11:23:03.945Z,100238.00
2022-10-02T11:25:38.954Z,100233.00
2022-10-02T11:28:09.930Z,100230.00
2022-10-02T11:30:45.500Z,100236.00
2022-10-02T11:33:24.541Z,100222.00
2022-10-02T11:35:57.660Z,100226.00
2022-10-02T11:38:40.310Z,100221.00
2022-10-02T11:41:28.598Z,100229.00
2022-10-02T11:44:10.192Z,100228.00
2022-10-02T11:47:18.842Z,100231.00
2022-10-02T11:50:23.885Z,100233.00
2022-10-02T11:53:11.742Z,100227.00
2022-10-02T11:55:56.178Z,100228.00
2022-10-02T11:58:22.767Z,100225.00
2022-10-02T12:01:07.924Z,100229.00
2022-10-02T12:03:46.576Z,100224.00
2022-10-02T12:06:23.574Z,100231.00
2022-10-02T12:09:28.915Z,100226.00
2022-10-02T12:12:35.465Z,100224.00
2022-10-02T12:15:20.568Z,100227.00
2022-10-02T12:18:28.389Z,100225.00
2022-10-02T12:21:31.628Z,100226.00
2022-10-02T12:24:37.811Z,100229.00
2022-10-02T12:27:36.856Z,100228.00
2022-10-02T12:30:07.909Z,100227.00
2022-10-02T12:32:53.063Z,100230.00
2022-10-02T12:35:19.557Z,100227.00
2022-10-02T12:37:49.830Z,100232.00
2022-10-02T12:40:21.793Z,100227.00
2022-10-02T12:43:19.473Z,100228.00
2022-10-02T12:46:13.865Z,100227.00
2022-10-02T12:48:54.503Z,100231.00
2022-10-02T12:51:35.422Z,100234.00
2022-10-02T12:54:09.233Z,100225.00
2022-10-02T12:56:57.427Z,100232.00
2022-10-02T12:59:33.118Z,100230.00
2022-10-02T13:02:11.531Z,100228.00
2022-10-02T13:05:09.416Z,100222.00
2022-10-02T13:08:10.179Z,100243.00
2022-10-02T13:11:02.575Z,100228.00
2022-10-02T13:13:47.707Z,100239.00
2022-10-02T13:16:44.720Z,100224.00
2022-10-02T13:19:15.794Z,100225.00
2022-10-02T13:22:10.029Z,100223.00
2022-10-02T13:25:18.622Z,100218.00
2022-10-02T13:28:03.314Z,100228.00
2022-10-02T13:30:37.307Z,100222.00
2022-10-02T13:33:26.566Z,100223.00
2022-10-02T13:35:58.743Z,100223.00
2022-10-02T13:38:58.967Z,100224.00
2022-10-02T13:41:28.686Z,100218.00
2022-10-02T13:44:16.636Z,100221.00
2022-10-02T13:47:06.482Z,100226.00
2022-10-02T13:50:16.742Z,100214.00
2022-10-02T13:53:33.681Z,100223.00
2022-10-02T13:56:19.060Z,100222.00
2022-10-02T13:58:45.501Z,100226.00
2022-10-02T14:01:35.015Z,100218.00
2022-10-02T14:04:19.617Z,100214.00
2022-10-02T14:06:55.604Z,100218.00
2022-10-02T14:09:24.881Z,100227.00
2022-10-02T14:12:05.080Z,100220.00
2022-10-02T14:14:55.490Z,100217.00
2022-10-02T14:17:40.258Z,100224.00
2022-10-02T14:20:40.044Z,100216.00
2022-10-02T14:23:44.159Z,100223.00
2022-10-02T14:26:32.986Z,100230.00
2022-10-02T14:29:18.134Z,100232.00
2022-10-02T14:32:04.123Z,100233.00
2022-10-02T14:34:59.015Z,100233.00
2022-10-02T14:37:52.862Z,100230.00
2022-10-02T14:40:20.135Z,100235.00
2022-10-02T14:43:23.288Z,100239.00
2022-10-02T14:45:55.838Z,100241.00
2022-10-02T14:48:50.923Z,100243.00
2022-10-02T14:51:23.347Z,100236.00
2022-10-02T14:54:09.267Z,100238.00
2022-10-02T14:56:52.015Z,100245.00
2022-10-02T14:59:37.970Z,100241.00
2022-10-02T15:02:08.648Z,100243.00
2022-10-02T15:04:50.025Z,100249.00
2022-10-02T15:07:20.998Z,100246.00
2022-10-02T15:10:13.177Z,100250.00
2022-10-02T15:12:56.453Z,100255.00
2022-10-02T15:15:36.988Z,100262.00
2022-10-02T15:18:24.230Z,100257.00
2022-10-02T15:21:15.260Z,100266.00
2022-10-02T15:24:20.696Z,100262.00
2022-10-02T15:26:55.389Z,100264.00
2022-10-02T15:30:04.576Z,100274.00
2022-10-02T15:32:34.586Z,100273.00
2022-10-02T15:35:10.208Z,100279.00
2022-10-02T15:38:02.533Z,100284.00
2022-10-02T15:40:44.927Z,100285.00
2022-10-02T15:43:16.068Z,100285.00
2022-10-02T15:46:08.470Z,100288.00
2022-10-02T15:48:43.967Z,100288.00
2022-10-02T15:51:19.730Z,100288.00
2022-10-02T15:53:55.194Z,100292.00
2022-10-02T15:56:30.884Z,100295.00
2022-10-02T15:59:12.898Z,100293.00
2022-10-02T16:01:58.257Z,100293.00
2022-10-02T16:05:15.544Z,100298.00
2022-10-02T16:07:56.844Z,100298.00
2022-10-02T16:10:35.667Z,100300.00
2022-10-02T16:13:11.291Z,100309.00
2022-10-02T16:15:56.109Z,100322.00
2022-10-02T16:18:34.859Z,100331.00
2022-10-02T16:21:32.074Z,100332.00
2022-10-02T16:24:10.757Z,100330.00
2022-10-02T16:27:00.496Z,100340.00
2022-10-02T16:29:42.784Z,100341.00
2022-10-02T16:32:18.216Z,100342.00
2022-10-02T16:35:02.838Z,100347.00
2022-10-02T16:37:46.103Z,100347.00
2022-10-02T16:40:43.565Z,100346.00
2022-10-02T16:43:41.198Z,100351.00
2022-10-02T16:46:26.661Z,100348.00
2022-10-02T16:48:59.067Z,100355.00
2022-10-02T16:51:51.267Z,100368.00
2022-10-02T16:54:23.753Z,100370.00
2022-10-02T16:57:05.028Z,100375.00
2022-10-02T16:59:39.888Z,100372.00
2022-10-02T17:02:19.572Z,100382.00
2022-10-02T17:04:57.805Z,100383.00
2022-10-02T17:07:52.946Z,100384.00
2022-10-02T17:10:25.667Z,100390.00
2022-10-02T17:13:00.859Z,100382.00
2022-10-02T17:15:34.388Z,100383.00
2022-10-02T17:18:07.175Z,100387.00
2022-10-02T17:20:40.999Z,100389.00
2022-10-02T17:23:34.535Z,100400.00
2022-10-02T17:26:08.675Z,100398.00
2022-10-02T17:28:43.507Z,100405.00
2022-10-02T17:31:22.217Z,100407.00
2022-10-02T17:33:55.638Z,100415.00
2022-10-02T17:36:43.980Z,100416.00
2022-10-02T17:39:32.407Z,100430.00
2022-10-02T17:42:11.599Z,100428.00
2022-10-02T17:44:46.423Z,100431.00
2022-10-02T17:47:23.247Z,100434.00
2022-10-02T17:50:37.008Z,100440.00
2022-10-02T17:53:55.812Z,100440.00
2022-10-02T17:56:39.786Z,100443.00
2022-10-02T17:59:35.319Z,100445.00
2022-10-02T18:02:34.051Z,100444.00
2022-10-02T18:05:17.938Z,100456.00
2022-10-02T18:08:06.665Z,100455.00
2022-10-02T18:10:50.153Z,100465.00
2022-10-02T18:13:45.992Z,100473.00
2022-10-02T18:16:38.133Z,100465.00
2022-10-02T18:19:23.808Z,100469.00
2022-10-02T18:21:53.701Z,100478.00
2022-10-02T18:24:25.271Z,100482.00
2022-10-02T18:27:13.682Z,100483.00
2022-10-02T18:30:13.517Z,100478.00
2022-10-02T18:33:06.730Z,100483.00
2022-10-02T18:35:43.055Z,100492.00
2022-10-02T18:38:21.376Z,100487.00
2022-10-02T18:41:04.574Z,100486.00
2022-10-02T18:43:55.782Z,100488.00
2022-10-02T18:46:37.882Z,100488.00
2022-10-02T18:49:20.539Z,100489.00
2022-10-02T18:52:07.514Z,100496.00
2022-10-02T18:54:50.718Z,100492.00
2022-10-02T18:57:56.158Z,100502.00
2022-10-02T19:00:24.951Z,100502.00
2022-10-02T19:03:31.697Z,100503.00
2022-10-02T19:06:18.135Z,100505.00
2022-10-02T19:09:03.696Z,100514.00
2022-10-02T19:11:31.946Z,100513.00
2022-10-02T19:14:02.091Z,100514.00
2022-10-02T19:16:30.103Z,100512.00
2022-10-02T19:19:19.081Z,100523.00
2022-10-02T19:21:45.744Z,100523.00
2022-10-02T19:24:15.738Z,100524.00
2022-10-02T19:26:45.505Z,100523.00
2022-10-02T19:29:25.837Z,100526.00
2022-10-02T19:31:53.027Z,100530.00
2022-10-02T19:34:24.345Z,100528.00
2022-10-02T19:36:54.835Z,100534.00
2022-10-02T19:39:30.458Z,100528.00
2022-10-02T19:41:59.695Z,100540.00
2022-10-02T19:44:28.175Z,100542.00
2022-10-02T19:46:57.407Z,100542.00
2022-10-02T19:49:30.844Z,100543.00
2022-10-02T19:51:57.687Z,100547.00
2022-10-02T19:54:32.630Z,100548.00
2022-10-02T19:57:04.177Z,100548.00
2022-10-02T19:59:41.626Z,100541.00
2022-10-02T20:02:39.029Z,100553.00
2022-10-02T20:05:07.618Z,100552.00
2022-10-02T20:07:37.163Z,100559.00
2022-10-02T20:10:11.223Z,100551.00
2022-10-02T20:12:53.600Z,100563.00
2022-10-02T20:15:44.202Z,100556.00
2022-10-02T20:18:11.539Z,100560.00
2022-10-02T20:20:39.299Z,100566.00
2022-10-02T20:23:07.827Z,100564.00
2022-10-02T20:25:41.977Z,100566.00
2022-10-02T20:28:31.661Z,100577.00
2022-10-02T20:31:06.952Z,100576.00
2022-10-02T20:33:40.557Z,100576.00
2022-10-02T20:36:14.622Z,100581.00
2022-10-02T20:38:49.535Z,100577.00
2022-10-02T20:41:29.014Z,100589.00
2022-10-02T20:44:02.285Z,100589.00
2022-10-02T20:46:40.639Z,100583.00
2022-10-02T20:49:31.612Z,100588.00
2022-10-02T20:52:24.496Z,100582.00
2022-10-02T20:54:51.742Z,100583.00
2022-10-02T20:57:59.558Z,100595.00
2022-10-02T21:00:28.841Z,100595.00
2022-10-02T21:02:55.322Z,100599.00
2022-10-02T21:05:53.882Z,100597.00
2022-10-02T21:08:32.493Z,100601.00
2022-10-02T21:11:10.032Z,100601.00
2022-10-02T21:14:04.524Z,100608.00
2022-10-02T21:17:08.821Z,100612.00
2022-10-02T21:20:51.238Z,100612.00
2022-10-02T21:23:39.642Z,100617.00
2022-10-02T21:26:26.756Z,100615.00
2022-10-02T21:28:59.799Z,100615.00
2022-10-02T21:31:52.055Z,100623.00
2022-10-02T21:34:56.336Z,100632.00
2022-10-02T21:37:47.383Z,100631.00
2022-10-02T21:40:35.440Z,100632.00
2022-10-02T21:43:43.881Z,100643.00
2022-10-02T21:46:37.451Z,100636.00
2022-10-02T21:49:14.065Z,100633.00
2022-10-02T21:52:27.769Z,100637.00
2022-10-02T21:55:17.690Z,100639.00
2022-10-02T21:57:58.004Z,100630.00
2022-10-02T22:00:28.408Z,100642.00
2022-10-02T22:03:32.049Z,100640.00
2022-10-02T22:06:26.253Z,100642.00
2022-10-02T22:09:23.909Z,100646.00
2022-10-02T22:12:08.836Z,100643.00
2022-10-02T22:14:40.939Z,100647.00
2022-10-02T22:17:33.985Z,100645.00
2022-10-02T22:20:14.927Z,100647.00
2022-10-02T22:23:05.429Z,100657.00
2022-10-02T22:25:55.992Z,100656.00
2022-10-02T22:28:23.944Z,100664.00
2022-10-02T22:30:56.392Z,100659.00
2022-10-02T22:33:44.890Z,100671.00
2022-10-02T22:36:34.305Z,100666.00
2022-10-02T22:39:21.905Z,100667.00
2022-10-02T22:41:59.506Z,100676.00
2022-10-02T22:44:55.782Z,100670.00
2022-10-02T22:47:33.579Z,100669.00
2022-10-02T22:50:05.780Z,100670.00
2022-10-02T22:53:08.326Z,100671.00
2022-10-02T22:55:44.283Z,100673.00
2022-10-02T22:58:25.159Z,100672.00
2022-10-02T23:01:19.917Z,100675.00
2022-10-02T23:03:53.900Z,100669.00
2022-10-02T23:06:30.627Z,100675.00
2022-10-02T23:09:09.973Z,100683.00
2022-10-02T23:11:58.326Z,100690.00
2022-10-02T23:14:34.741Z,100689.00
2022-10-02T23:17:42.264Z,100681.00
2022-10-02T23:20:17.819Z,100683.00
2022-10-02T23:22:54.408Z,100676.00
2022-10-02T23:25:29.872Z,100686.00
2022-10-02T23:28:02.119Z,100682.00
2022-10-02T23:30:31.082Z,100688.00
2022-10-02T23:33:00.544Z,100685.00
2022-10-02T23:35:45.515Z,100697.00
2022-10-02T23:38:19.467Z,100687.00
2022-10-02T23:41:28.120Z,100696.00
2022-10-02T23:44:19.676Z,100714.00
2022-10-02T23:46:54.026Z,100710.00
2022-10-02T23:49:26.912Z,100717.00
2022-10-02T23:52:12.222Z,100710.00
2022-10-02T23:55:06.488Z,100714.00
2022-10-02T23:57:57.898Z,100717.00
